Time;durP1;ratioP1;P1;durP2;ratioP2;P2;SDS_P1;SDS_P2;PMS_P1;PMS_P2;Temp;Humidity;BMP_temperature;BMP_pressure;BME280_temperature;BME280_humidity;BME280_pressure;Samples;Min_cycle;Max_cycle;Signal;HPM_P1;HPM_P2
2022/03/19 00:00:36;;;;;;;5.05;4.65;;;;;;;6.43;61.82;100860.38;4107972;28;20262;-56
2022/03/19 00:02:38;;;;;;;4.80;4.43;;;;;;;6.45;61.81;100863.78;4126470;28;20256;-57
2022/03/19 00:04:39;;;;;;;4.13;3.42;;;;;;;6.29;61.93;100863.75;4123387;28;20932;-59
2022/03/19 00:06:43;;;;;;;5.07;4.30;;;;;;;6.34;62.03;100861.34;4110645;28;20214;-58
2022/03/19 00:08:45;;;;;;;5.38;4.28;;;;;;;6.34;61.69;100861.34;4112577;28;20731;-58
2022/03/19 00:10:47;;;;;;;7.53;5.13;;;;;;;6.31;62.27;100861.69;4111595;28;20230;-57
2022/03/19 00:12:49;;;;;;;4.15;3.58;;;;;;;6.35;61.81;100868.53;4105173;28;20221;-58
2022/03/19 00:14:51;;;;;;;6.15;5.53;;;;;;;6.43;61.28;100866.66;4109913;28;20210;-56
2022/03/19 00:16:53;;;;;;;5.97;4.70;;;;;;;6.36;61.63;100865.63;4110739;28;20208;-57
2022/03/19 00:18:55;;;;;;;4.85;4.38;;;;;;;6.37;61.91;100867.31;4110351;28;20207;-58
2022/03/19 00:20:56;;;;;;;5.60;4.63;;;;;;;6.43;61.51;100865.81;4127243;28;20739;-57
2022/03/19 00:22:58;;;;;;;3.90;3.42;;;;;;;6.27;61.94;100871.19;4110703;28;20273;-56
2022/03/19 00:25:00;;;;;;;5.13;4.63;;;;;;;6.24;61.93;100866.09;4113114;28;20217;-57
2022/03/19 00:27:02;;;;;;;12.55;4.18;;;;;;;6.25;61.71;100862.34;4126657;28;20213;-56
2022/03/19 00:29:04;;;;;;;5.15;4.65;;;;;;;6.24;61.97;100863.38;4110453;28;20345;-57
2022/03/19 00:31:06;;;;;;;4.10;3.80;;;;;;;6.19;62.01;100860.28;4112025;28;20254;-58
2022/03/19 00:33:08;;;;;;;3.97;3.58;;;;;;;6.28;61.81;100860.16;4110565;28;20265;-58
2022/03/19 00:35:10;;;;;;;8.35;4.78;;;;;;;6.11;62.21;100861.13;4120736;28;20257;-59
2022/03/19 00:37:12;;;;;;;8.80;6.22;;;;;;;6.08;62.38;100860.63;4109827;28;20242;-59
2022/03/19 00:39:13;;;;;;;6.70;5.97;;;;;;;6.05;62.46;100866.38;4127801;28;20202;-57
2022/03/19 00:41:15;;;;;;;6.15;5.32;;;;;;;6.11;62.13;100863.84;4129871;28;20406;-59
2022/03/19 00:43:19;;;;;;;5.07;3.63;;;;;;;6.02;62.23;100861.28;4112374;28;20604;-58
2022/03/19 00:45:21;;;;;;;5.75;4.80;;;;;;;6.07;62.10;100858.88;4126647;28;20210;-59
2022/03/19 00:47:23;;;;;;;4.32;3.53;;;;;;;6.06;61.94;100862.63;4109676;28;20215;-58
2022/03/19 00:49:25;;;;;;;4.47;3.88;;;;;;;5.93;62.25;100862.22;4123201;28;20425;-57
2022/03/19 00:51:27;;;;;;;5.28;4.78;;;;;;;6.09;61.62;100856.88;4123866;28;20247;-58
2022/03/19 00:53:28;;;;;;;5.05;4.68;;;;;;;6.04;61.99;100845.63;4112060;28;20245;-58
2022/03/19 00:55:30;;;;;;;5.97;4.60;;;;;;;6.06;61.85;100862.63;4108145;28;20326;-57
2022/03/19 00:57:39;;;;;;;4.05;3.67;;;;;;;5.98;61.88;100854.44;4126095;28;20259;-57
2022/03/19 00:59:41;;;;;;;7.70;4.57;;;;;;;5.98;61.63;100859.88;4124665;28;20206;-57
2022/03/19 01:01:46;;;;;;;5.45;4.95;;;;;;;5.96;61.60;100856.47;4121406;28;20742;-59
2022/03/19 01:03:48;;;;;;;4.50;4.18;;;;;;;5.91;61.62;100858.84;4093777;28;20210;-58
2022/03/19 01:05:50;;;;;;;3.95;3.35;;;;;;;5.86;61.80;100855.75;4112514;28;20270;-59
2022/03/19 01:07:55;;;;;;;5.32;4.28;;;;;;;5.89;61.96;100863.59;4108037;28;20207;-59
2022/03/19 01:09:56;;;;;;;11.02;4.50;;;;;;;5.89;61.66;100861.69;4123032;28;20774;-59
2022/03/19 01:11:58;;;;;;;5.53;4.35;;;;;;;5.84;61.68;100852.34;4105250;28;20246;-58
2022/03/19 01:14:00;;;;;;;4.95;3.38;;;;;;;5.79;61.74;100849.22;4120425;28;20294;-56
2022/03/19 01:16:02;;;;;;;4.93;4.25;;;;;;;5.90;61.77;100851.69;4110175;28;20314;-57
2022/03/19 01:18:05;;;;;;;5.35;4.28;;;;;;;5.88;61.09;100851.03;4109882;28;20215;-56
2022/03/19 01:20:10;;;;;;;4.53;4.20;;;;;;;5.86;61.16;100850.31;4110480;28;20266;-56
2022/03/19 01:22:12;;;;;;;4.75;4.22;;;;;;;5.83;61.45;100845.22;4090557;28;20286;-57
2022/03/19 01:24:14;;;;;;;3.33;2.90;;;;;;;5.75;61.64;100842.44;4109203;28;20211;-58
2022/03/19 01:26:19;;;;;;;6.85;4.40;;;;;;;5.78;61.09;100844.81;4109635;28;20281;-60
2022/03/19 01:28:20;;;;;;;3.85;3.38;;;;;;;5.78;61.18;100847.53;4123894;28;20688;-60
2022/03/19 01:30:22;;;;;;;4.28;3.90;;;;;;;5.63;61.20;100849.16;4125236;28;20651;-59
2022/03/19 01:32:27;;;;;;;6.82;4.82;;;;;;;5.64;61.42;100840.00;4124297;28;20198;-59
2022/03/19 01:34:29;;;;;;;4.35;3.88;;;;;;;5.65;61.06;100841.69;4127410;28;20231;-58
2022/03/19 01:36:31;;;;;;;2.97;2.67;;;;;;;5.58;61.38;100840.63;4120705;28;20218;-59
2022/03/19 01:38:32;;;;;;;4.20;3.33;;;;;;;5.63;61.12;100844.56;4121424;28;20276;-56
2022/03/19 01:40:34;;;;;;;4.03;3.70;;;;;;;5.62;61.07;100842.88;4120297;28;20722;-57
2022/03/19 01:42:45;;;;;;;4.15;3.45;;;;;;;5.57;60.79;100844.38;4106844;28;20287;-57
2022/03/19 01:44:47;;;;;;;3.50;3.05;;;;;;;5.59;60.91;100834.19;4111824;28;20198;-58
2022/03/19 01:47:10;;;;;;;2.95;2.65;;;;;;;5.50;60.83;100837.88;4110631;28;20601;-58
2022/03/19 01:49:12;;;;;;;4.95;2.28;;;;;;;5.57;60.94;100828.06;4111313;28;20222;-57
2022/03/19 01:51:13;;;;;;;3.22;2.90;;;;;;;5.59;60.78;100832.34;4093227;28;20226;-60
2022/03/19 01:53:15;;;;;;;3.75;3.45;;;;;;;5.54;60.92;100829.25;4125106;28;20206;-59
2022/03/19 01:55:22;;;;;;;3.38;2.97;;;;;;;5.60;60.60;100833.16;4110139;28;20325;-58
2022/03/19 01:57:25;;;;;;;2.70;2.50;;;;;;;5.63;60.78;100828.25;4108844;28;20223;-58
2022/03/19 01:59:34;;;;;;;6.22;4.18;;;;;;;5.58;60.59;100830.63;4115740;28;20199;-58
2022/03/19 02:01:35;;;;;;;5.65;3.63;;;;;;;5.51;60.74;100823.28;4105668;28;20245;-59
2022/03/19 02:03:37;;;;;;;6.93;2.83;;;;;;;5.47;60.45;100821.91;4104620;28;20210;-58
2022/03/19 02:05:39;;;;;;;2.65;2.45;;;;;;;5.42;60.78;100832.41;4091914;28;20985;-60
2022/03/19 02:07:42;;;;;;;3.70;2.47;;;;;;;5.54;60.67;100825.66;4121452;28;20206;-57
2022/03/19 02:09:43;;;;;;;4.28;3.40;;;;;;;5.47;60.59;100819.19;4109721;28;20261;-58
2022/03/19 02:11:45;;;;;;;4.72;3.83;;;;;;;5.51;60.51;100823.28;4111212;28;20223;-57
2022/03/19 02:13:47;;;;;;;2.70;2.50;;;;;;;5.44;60.69;100822.22;4109774;28;20238;-58
2022/03/19 02:15:48;;;;;;;3.25;2.30;;;;;;;5.36;60.76;100824.91;4118026;28;20293;-56
2022/03/19 02:17:50;;;;;;;2.60;2.33;;;;;;;5.40;60.87;100826.28;4122674;28;20319;-57
2022/03/19 02:19:55;;;;;;;4.07;2.30;;;;;;;5.43;61.20;100825.97;4110193;28;20207;-59
2022/03/19 02:21:57;;;;;;;3.40;2.47;;;;;;;5.31;60.97;100827.25;4113442;28;20718;-61
2022/03/19 02:26:19;;;;;;;12.57;4.00;;;;;;;5.28;61.18;100827.53;4125778;28;20205;-58
2022/03/19 02:28:21;;;;;;;2.85;2.42;;;;;;;5.32;61.22;100816.22;4125803;28;20241;-58
2022/03/19 02:30:22;;;;;;;6.85;2.72;;;;;;;5.29;61.03;100813.00;4108750;28;20226;-61
2022/03/19 02:32:25;;;;;;;3.85;2.78;;;;;;;5.29;61.28;100821.13;4125424;28;20242;-57
2022/03/19 02:34:27;;;;;;;3.22;3.03;;;;;;;5.29;60.95;100823.84;4125814;28;20262;-58
2022/03/19 02:36:29;;;;;;;3.30;3.00;;;;;;;5.26;61.32;100818.72;4108771;28;20230;-57
2022/03/19 02:38:39;;;;;;;3.47;3.20;;;;;;;5.33;61.14;100814.34;4123003;28;20221;-57
2022/03/19 02:40:41;;;;;;;3.70;3.40;;;;;;;5.26;61.15;100807.88;4120615;28;20722;-58
2022/03/19 02:42:46;;;;;;;2.83;2.63;;;;;;;5.27;61.07;100809.56;4121468;28;20257;-57
2022/03/19 02:44:49;;;;;;;3.42;2.88;;;;;;;5.22;61.24;100803.78;4106778;28;20195;-57
2022/03/19 02:46:55;;;;;;;2.50;2.30;;;;;;;5.16;61.44;100796.28;4093172;28;20207;-57
2022/03/19 02:48:57;;;;;;;2.63;2.42;;;;;;;5.18;61.76;100788.81;4111706;28;20202;-58
2022/03/19 02:50:58;;;;;;;3.20;2.83;;;;;;;5.29;61.23;100800.25;4109571;28;20747;-57
2022/03/19 02:53:03;;;;;;;7.10;3.83;;;;;;;5.14;61.29;100793.72;4109220;28;20210;-57
2022/03/19 02:55:05;;;;;;;2.38;1.90;;;;;;;5.12;61.84;100800.31;4125329;28;20683;-57
2022/03/19 02:57:07;;;;;;;3.05;2.50;;;;;;;5.11;61.52;100801.31;4104939;28;20234;-59
2022/03/19 02:59:17;;;;;;;9.93;3.05;;;;;;;5.22;61.46;100796.47;4109024;28;20203;-59
2022/03/19 03:01:19;;;;;;;3.83;2.88;;;;;;;5.17;62.00;100803.41;4125093;28;20233;-58
2022/03/19 03:03:21;;;;;;;4.93;3.45;;;;;;;5.04;61.97;100802.97;4108338;28;20203;-57
2022/03/19 03:05:23;;;;;;;3.15;2.90;;;;;;;5.16;61.68;100807.97;4120996;28;20631;-61
2022/03/19 03:07:24;;;;;;;2.80;2.60;;;;;;;4.97;61.93;100801.03;4108165;28;20295;-59
2022/03/19 03:09:31;;;;;;;3.67;3.38;;;;;;;5.02;62.08;100799.59;4119113;28;20853;-58
2022/03/19 03:11:32;;;;;;;3.60;3.30;;;;;;;5.05;62.07;100799.25;4128769;28;20264;-58
2022/03/19 03:13:35;;;;;;;4.05;2.60;;;;;;;5.12;61.73;100794.88;4095795;28;20207;-60
2022/03/19 03:15:37;;;;;;;4.38;4.00;;;;;;;5.11;61.90;100804.03;4111222;28;20219;-60
2022/03/19 03:17:38;;;;;;;2.75;2.45;;;;;;;4.96;62.17;100797.50;4124718;28;20303;-60
2022/03/19 03:19:41;;;;;;;2.97;2.78;;;;;;;4.97;62.00;100795.63;4105894;28;20221;-59
2022/03/19 03:21:43;;;;;;;4.95;3.42;;;;;;;4.91;62.19;100791.69;4111416;28;20234;-59
2022/03/19 03:23:45;;;;;;;3.65;2.60;;;;;;;4.91;62.04;100797.13;4112492;28;20207;-57
2022/03/19 03:25:47;;;;;;;3.40;2.90;;;;;;;4.79;62.50;100797.53;4112021;28;20241;-56
2022/03/19 03:27:49;;;;;;;3.20;2.83;;;;;;;4.85;62.34;100791.44;4097712;28;20207;-58
2022/03/19 03:29:50;;;;;;;2.58;2.03;;;;;;;4.87;62.43;100795.72;4112776;28;20289;-57
2022/03/19 03:31:52;;;;;;;3.28;2.85;;;;;;;4.91;61.82;100796.25;4105399;28;20345;-58
2022/03/19 03:33:54;;;;;;;4.70;3.95;;;;;;;4.88;62.14;100794.69;4125000;28;20206;-57
2022/03/19 03:35:56;;;;;;;3.50;3.20;;;;;;;4.82;62.05;100798.06;4108910;28;20214;-58
2022/03/19 03:37:58;;;;;;;3.85;3.45;;;;;;;4.81;62.28;100800.94;4129202;28;20724;-58
2022/03/19 03:39:59;;;;;;;5.50;2.45;;;;;;;4.73;62.16;100792.75;4111525;28;20746;-59
2022/03/19 03:42:01;;;;;;;3.38;3.08;;;;;;;4.69;62.61;100792.19;4125503;28;20711;-58
2022/03/19 03:44:03;;;;;;;2.45;2.30;;;;;;;4.71;62.43;100795.59;4123424;28;20206;-59
2022/03/19 03:46:04;;;;;;;3.88;2.83;;;;;;;4.72;62.70;100797.31;4112010;28;20206;-58
2022/03/19 03:48:06;;;;;;;3.55;3.25;;;;;;;4.74;62.52;100799.88;4112752;28;20250;-58
2022/03/19 03:50:08;;;;;;;4.50;3.17;;;;;;;4.70;62.59;100791.19;4115449;28;20762;-60
2022/03/19 03:52:10;;;;;;;2.88;2.67;;;;;;;4.86;62.09;100798.59;4127006;28;20202;-59
2022/03/19 03:54:12;;;;;;;2.50;2.30;;;;;;;4.75;62.74;100797.00;4093377;28;20200;-58
2022/03/19 03:56:14;;;;;;;2.28;2.17;;;;;;;4.72;62.31;100791.88;4111564;28;20214;-57
2022/03/19 03:58:16;;;;;;;3.20;2.92;;;;;;;4.77;62.61;100788.69;4125347;28;20279;-58
2022/03/19 04:00:17;;;;;;;3.75;3.30;;;;;;;4.70;62.60;100788.47;4124501;28;20245;-58
2022/03/19 04:02:19;;;;;;;3.33;2.90;;;;;;;4.66;62.58;100781.66;4109887;28;20206;-59
2022/03/19 04:04:21;;;;;;;6.90;3.40;;;;;;;4.65;62.82;100784.50;4090793;28;20769;-57
2022/03/19 04:06:23;;;;;;;7.50;3.35;;;;;;;4.62;63.08;100785.69;4109413;28;20214;-60
2022/03/19 04:08:24;;;;;;;5.07;3.00;;;;;;;4.54;62.95;100774.75;4124653;28;20198;-57
2022/03/19 04:10:26;;;;;;;7.95;3.55;;;;;;;4.57;63.00;100779.91;4108719;28;20321;-57
2022/03/19 04:12:28;;;;;;;3.13;2.47;;;;;;;4.61;63.29;100777.72;4110428;28;20298;-58
2022/03/19 04:14:30;;;;;;;3.53;3.22;;;;;;;4.64;62.95;100772.84;4122752;28;20210;-59
2022/03/19 04:16:32;;;;;;;3.55;2.55;;;;;;;4.60;63.38;100776.03;4128512;28;20214;-59
2022/03/19 04:18:34;;;;;;;7.53;3.28;;;;;;;4.63;63.43;100779.28;4123761;28;20211;-58
2022/03/19 04:20:36;;;;;;;11.52;3.08;;;;;;;4.63;63.30;100771.13;4111649;28;20227;-60
2022/03/19 04:22:42;;;;;;;3.47;3.10;;;;;;;4.65;63.21;100773.66;4126649;28;20293;-58
2022/03/19 04:24:44;;;;;;;3.97;3.42;;;;;;;4.58;63.70;100773.47;4110524;28;20203;-57
2022/03/19 04:26:45;;;;;;;4.05;3.65;;;;;;;4.68;63.15;100768.78;4122063;28;20225;-58
2022/03/19 04:28:47;;;;;;;3.38;3.15;;;;;;;4.48;63.54;100769.13;4109042;28;20230;-59
2022/03/19 04:30:49;;;;;;;3.90;3.25;;;;;;;4.55;63.41;100767.50;4110327;28;20688;-57
2022/03/19 04:32:59;;;;;;;6.75;4.88;;;;;;;4.45;63.84;100770.28;4106190;28;20215;-60
2022/03/19 04:36:29;;;;;;;3.95;3.30;;;;;;;4.50;63.84;100765.25;4089407;28;20215;-57
2022/03/19 04:37:23;;;;;;;3.58;3.28;;;;;;;4.52;64.15;100768.66;4128106;28;20210;-60
2022/03/19 04:39:24;;;;;;;3.58;2.67;;;;;;;4.45;64.01;100759.44;4114327;28;20199;-58
2022/03/19 04:41:27;;;;;;;3.80;3.40;;;;;;;4.55;63.82;100762.06;4128330;28;20226;-58
2022/03/19 04:43:28;;;;;;;8.02;3.35;;;;;;;4.46;63.92;100758.44;4097160;28;20207;-58
2022/03/19 04:45:30;;;;;;;2.95;2.67;;;;;;;4.46;63.86;100758.44;4129998;28;20213;-58
2022/03/19 04:47:32;;;;;;;4.18;3.65;;;;;;;4.52;64.12;100751.53;4113857;28;20226;-57
2022/03/19 04:49:33;;;;;;;4.50;3.75;;;;;;;4.59;64.43;100758.06;4110085;28;20222;-58
2022/03/19 04:51:38;;;;;;;5.18;4.68;;;;;;;4.48;64.66;100750.16;4115123;28;20226;-58
2022/03/19 04:53:40;;;;;;;3.25;2.92;;;;;;;4.42;64.55;100754.34;4114274;28;20231;-58
2022/03/19 04:55:42;;;;;;;3.60;3.30;;;;;;;4.49;64.40;100752.72;4115741;28;20221;-58
2022/03/19 04:57:44;;;;;;;4.57;3.40;;;;;;;4.54;64.40;100750.38;4126582;28;20205;-58
2022/03/19 04:59:46;;;;;;;3.60;3.17;;;;;;;4.48;64.26;100751.00;4121461;28;20206;-57
2022/03/19 05:01:51;;;;;;;6.45;4.03;;;;;;;4.48;64.59;100756.41;4113137;28;20687;-57
2022/03/19 05:03:53;;;;;;;10.85;5.88;;;;;;;4.40;64.68;100759.06;4107835;28;20242;-57
2022/03/19 05:05:55;;;;;;;4.45;3.67;;;;;;;4.47;64.50;100754.72;4108191;28;20235;-58
2022/03/19 05:07:56;;;;;;;5.85;5.28;;;;;;;4.35;64.92;100761.38;4121447;28;20206;-57
2022/03/19 05:12:39;;;;;;;3.97;3.33;;;;;;;4.35;65.48;100761.38;4128085;28;20293;-58
2022/03/19 05:14:40;;;;;;;4.60;3.90;;;;;;;4.33;64.90;100757.16;4109035;28;20215;-58
2022/03/19 05:16:42;;;;;;;5.25;4.15;;;;;;;4.34;65.23;100754.25;4122390;28;20209;-58
2022/03/19 05:18:44;;;;;;;10.85;4.68;;;;;;;4.31;65.18;100760.00;4105233;28;20238;-58
2022/03/19 05:20:46;;;;;;;3.75;3.45;;;;;;;4.28;65.57;100754.88;4123622;28;20229;-58
2022/03/19 05:22:48;;;;;;;4.13;3.83;;;;;;;4.32;65.87;100761.72;4121499;28;20214;-58
2022/03/19 05:24:50;;;;;;;4.38;3.83;;;;;;;4.27;65.57;100755.88;4110242;28;20198;-58
2022/03/19 05:26:51;;;;;;;6.63;4.07;;;;;;;4.24;65.97;100758.94;4122869;28;20213;-58
2022/03/19 05:28:55;;;;;;;5.80;5.25;;;;;;;4.22;66.00;100744.69;4127309;28;20213;-58
2022/03/19 05:31:16;;;;;;;4.80;4.40;;;;;;;4.28;66.09;100754.03;4101353;28;20242;-58
2022/03/19 05:33:18;;;;;;;6.65;4.65;;;;;;;4.25;65.56;100754.34;4120097;28;20214;-58
2022/03/19 05:35:21;;;;;;;5.78;5.20;;;;;;;4.15;66.30;100748.16;4123812;28;20284;-60
2022/03/19 05:37:23;;;;;;;5.68;4.13;;;;;;;4.17;66.07;100757.84;4110374;28;20241;-58
2022/03/19 05:39:28;;;;;;;5.05;4.63;;;;;;;4.12;66.58;100749.31;4108174;28;20262;-58
2022/03/19 05:41:30;;;;;;;4.47;4.07;;;;;;;4.11;66.69;100753.03;4126957;28;20222;-57
2022/03/19 05:43:36;;;;;;;4.47;3.92;;;;;;;4.11;66.45;100753.03;4113044;28;20223;-57
2022/03/19 05:45:37;;;;;;;3.90;3.58;;;;;;;4.18;66.14;100748.69;4111590;28;20694;-57
2022/03/19 05:47:39;;;;;;;4.68;4.20;;;;;;;4.27;65.73;100753.19;4128737;28;20230;-58
2022/03/19 05:49:41;;;;;;;5.97;3.63;;;;;;;4.25;65.98;100755.19;4126522;28;20214;-58
2022/03/19 05:51:43;;;;;;;3.95;3.20;;;;;;;4.24;66.05;100750.78;4110282;28;20288;-57
2022/03/19 05:53:45;;;;;;;4.65;4.25;;;;;;;4.36;65.50;100752.28;4107892;28;20202;-58
2022/03/19 05:55:47;;;;;;;4.00;3.58;;;;;;;4.31;65.91;100754.59;4121313;28;20649;-58
2022/03/19 05:57:49;;;;;;;4.35;3.95;;;;;;;4.22;66.39;100752.81;4126538;28;20213;-57
2022/03/19 05:59:50;;;;;;;4.32;3.92;;;;;;;4.21;66.75;100750.25;4122271;28;20243;-57
2022/03/19 06:01:52;;;;;;;4.28;3.85;;;;;;;4.32;65.90;100750.88;4110940;28;20265;-57
2022/03/19 06:03:55;;;;;;;4.88;3.83;;;;;;;4.27;66.33;100753.19;4125126;28;20280;-60
2022/03/19 06:05:57;;;;;;;9.25;4.18;;;;;;;4.30;66.31;100747.47;4123389;28;20217;-58
2022/03/19 06:07:59;;;;;;;4.43;4.05;;;;;;;4.32;66.63;100750.00;4109991;28;20207;-58
2022/03/19 06:10:01;;;;;;;3.90;3.60;;;;;;;4.31;66.15;100745.59;4125830;28;20637;-56
2022/03/19 06:12:03;;;;;;;6.85;3.65;;;;;;;4.33;66.34;100752.56;4121651;28;20704;-59
2022/03/19 06:14:05;;;;;;;3.50;3.15;;;;;;;4.28;66.73;100760.28;4121357;28;20209;-58
2022/03/19 06:16:07;;;;;;;4.35;3.95;;;;;;;4.31;66.44;100749.16;4107799;28;20223;-59
2022/03/19 06:18:09;;;;;;;4.25;3.95;;;;;;;4.36;66.13;100752.28;4125031;28;20680;-58
2022/03/19 06:20:12;;;;;;;4.97;4.53;;;;;;;4.44;65.75;100751.47;4106655;28;20315;-61
2022/03/19 06:22:14;;;;;;;4.20;3.85;;;;;;;4.43;65.75;100747.94;4127030;28;20221;-58
2022/03/19 06:24:17;;;;;;;5.53;4.25;;;;;;;4.53;65.81;100753.25;4121318;28;20242;-61
2022/03/19 06:26:23;;;;;;;4.25;3.88;;;;;;;4.48;66.01;100750.16;4108825;28;20213;-58
2022/03/19 06:28:25;;;;;;;4.22;3.75;;;;;;;4.45;66.45;100745.91;4100434;28;20212;-59
2022/03/19 06:30:27;;;;;;;3.65;3.35;;;;;;;4.54;66.05;100744.94;4099711;28;20250;-60
2022/03/19 06:32:29;;;;;;;3.55;3.25;;;;;;;4.48;65.91;100751.00;4122320;28;20794;-59
2022/03/19 06:34:32;;;;;;;5.50;4.70;;;;;;;4.59;66.28;100739.06;4106538;28;20270;-57
2022/03/19 06:38:54;;;;;;;4.47;3.88;;;;;;;4.87;65.32;100746.88;4125456;28;20236;-57
2022/03/19 06:40:58;;;;;;;4.82;4.43;;;;;;;5.06;64.87;100741.25;4117447;28;20226;-59
2022/03/19 06:42:59;;;;;;;4.50;3.20;;;;;;;5.23;64.65;100741.16;4122473;28;20277;-57
2022/03/19 06:45:01;;;;;;;4.97;4.00;;;;;;;5.58;64.29;100734.72;4103450;28;20211;-57
2022/03/19 06:47:03;;;;;;;4.18;3.67;;;;;;;5.61;62.88;100731.66;4107732;28;20230;-57
2022/03/19 06:49:06;;;;;;;4.18;3.88;;;;;;;5.84;63.31;100732.81;4102125;28;20622;-57
2022/03/19 06:51:08;;;;;;;4.70;3.60;;;;;;;5.78;63.34;100728.00;4123688;28;20261;-57
2022/03/19 06:53:09;;;;;;;4.88;4.13;;;;;;;6.42;62.77;100733.59;4121388;28;20751;-58
2022/03/19 06:55:11;;;;;;;4.38;4.00;;;;;;;6.29;61.06;100731.34;4125506;28;21108;-58
2022/03/19 06:57:13;;;;;;;4.00;3.33;;;;;;;6.41;61.35;100734.56;4102752;28;20334;-58
2022/03/19 06:59:14;;;;;;;3.70;2.85;;;;;;;6.27;60.99;100736.13;4124079;28;20217;-57
2022/03/19 07:01:16;;;;;;;4.18;3.75;;;;;;;6.42;60.85;100739.03;4091906;28;20216;-57
2022/03/19 07:03:19;;;;;;;4.85;3.95;;;;;;;6.37;60.87;100735.97;4111441;28;20298;-58
2022/03/19 07:05:28;;;;;;;5.35;2.95;;;;;;;6.71;60.87;100740.22;4103677;28;20208;-57
2022/03/19 07:07:30;;;;;;;3.28;2.47;;;;;;;6.83;60.11;100740.72;4125915;28;20201;-60
2022/03/19 07:09:31;;;;;;;5.70;3.03;;;;;;;6.82;60.18;100731.69;4107988;28;20195;-58
2022/03/19 07:11:35;;;;;;;17.60;3.97;;;;;;;6.87;59.65;100736.59;4103443;28;20254;-58
2022/03/19 07:13:38;;;;;;;4.70;3.45;;;;;;;6.86;59.29;100737.63;4101394;28;20554;-58
2022/03/19 07:15:41;;;;;;;4.13;3.25;;;;;;;6.87;59.58;100731.16;4110860;28;20218;-59
2022/03/19 07:17:43;;;;;;;4.38;4.00;;;;;;;7.22;59.26;100749.81;4107219;28;20404;-58
2022/03/19 07:19:45;;;;;;;4.45;3.30;;;;;;;6.87;59.41;100745.63;4106680;28;20206;-58
2022/03/19 07:21:50;;;;;;;3.92;3.63;;;;;;;7.30;59.61;100741.63;4103891;28;20743;-59
2022/03/19 07:23:52;;;;;;;3.55;3.25;;;;;;;7.17;59.13;100738.59;4099401;28;20230;-57
2022/03/19 07:25:59;;;;;;;5.50;3.17;;;;;;;7.26;58.71;100732.09;4093119;28;20996;-58
2022/03/19 07:28:03;;;;;;;4.65;2.70;;;;;;;7.64;58.16;100734.88;4104611;28;20215;-57
2022/03/19 07:30:06;;;;;;;6.03;3.20;;;;;;;7.70;58.13;100738.75;4080917;28;20291;-59
2022/03/19 07:32:09;;;;;;;4.38;3.78;;;;;;;7.74;57.64;100732.75;4103306;28;20227;-58
2022/03/19 07:34:11;;;;;;;11.50;3.80;;;;;;;7.47;58.01;100732.34;4105476;28;20203;-57
2022/03/19 07:36:13;;;;;;;5.05;3.17;;;;;;;7.98;57.41;100731.78;4101690;28;20273;-57
2022/03/19 07:38:15;;;;;;;3.88;3.35;;;;;;;7.43;57.50;100736.47;4102335;28;20301;-57
2022/03/19 07:41:45;;;;;;;4.32;3.42;;;;;;;7.62;58.10;100733.34;4103387;28;20226;-57
2022/03/19 07:42:41;;;;;;;4.57;4.15;;;;;;;7.79;57.84;100740.41;4107187;28;20243;-57
2022/03/19 07:44:42;;;;;;;7.55;3.63;;;;;;;8.14;56.62;100728.94;4105283;28;20241;-58
2022/03/19 07:46:44;;;;;;;4.97;4.50;;;;;;;7.88;56.69;100736.63;4104182;28;20209;-57
2022/03/19 07:48:46;;;;;;;5.00;4.10;;;;;;;7.99;56.75;100722.56;4105631;28;20269;-58
2022/03/19 07:50:48;;;;;;;4.25;3.53;;;;;;;8.21;56.04;100732.72;4109711;28;20273;-57
2022/03/19 07:52:50;;;;;;;5.72;5.13;;;;;;;7.64;57.34;100723.97;4104513;28;20277;-57
2022/03/19 07:54:54;;;;;;;5.68;4.65;;;;;;;7.93;56.25;100732.31;4103710;28;20303;-56
2022/03/19 07:56:56;;;;;;;4.20;3.80;;;;;;;7.93;56.58;100729.59;4100763;28;20220;-57
2022/03/19 07:58:58;;;;;;;6.95;4.95;;;;;;;8.17;56.61;100736.78;4102177;28;20258;-57
2022/03/19 08:00:59;;;;;;;3.60;3.30;;;;;;;8.31;55.98;100730.56;4090177;28;20713;-57
2022/03/19 08:03:01;;;;;;;4.63;3.85;;;;;;;8.49;55.86;100731.13;4106980;28;20214;-58
2022/03/19 08:05:03;;;;;;;8.05;4.00;;;;;;;8.16;56.24;100735.91;4110222;28;20206;-58
2022/03/19 08:07:06;;;;;;;7.68;4.05;;;;;;;8.18;56.06;100738.47;4108338;28;20207;-58
2022/03/19 08:09:08;;;;;;;4.57;3.92;;;;;;;8.27;56.20;100734.69;4091977;28;20211;-58
2022/03/19 08:11:10;;;;;;;3.38;2.60;;;;;;;8.32;55.74;100737.72;4108433;28;20234;-57
2022/03/19 08:13:12;;;;;;;4.00;3.60;;;;;;;8.29;55.77;100729.91;4090314;28;20204;-57
2022/03/19 08:15:14;;;;;;;3.47;3.13;;;;;;;8.24;55.95;100726.88;4104715;28;20207;-57
2022/03/19 08:17:16;;;;;;;9.98;4.88;;;;;;;8.31;55.76;100739.63;4089918;28;20241;-57
2022/03/19 08:19:19;;;;;;;3.30;2.70;;;;;;;8.34;55.72;100732.97;4104968;28;20214;-57
2022/03/19 08:21:20;;;;;;;14.30;4.18;;;;;;;8.43;56.09;100726.41;4105674;28;20254;-57
2022/03/19 08:23:22;;;;;;;4.45;3.90;;;;;;;8.48;55.52;100734.91;4089875;28;20723;-57
2022/03/19 08:25:24;;;;;;;5.80;2.85;;;;;;;8.49;56.43;100729.22;4106326;28;20757;-56
2022/03/19 08:27:26;;;;;;;3.22;2.92;;;;;;;9.04;55.17;100726.19;4107270;28;20490;-56
2022/03/19 08:29:28;;;;;;;6.93;3.17;;;;;;;8.87;55.27;100724.63;4090196;28;20835;-57
2022/03/19 08:31:29;;;;;;;3.53;3.22;;;;;;;9.09;54.90;100727.31;4090661;28;20239;-57
2022/03/19 08:33:31;;;;;;;3.03;2.83;;;;;;;9.27;54.14;100726.94;4101502;28;20209;-57
2022/03/19 08:35:33;;;;;;;2.78;2.58;;;;;;;9.69;54.19;100721.66;4089347;28;20207;-57
2022/03/19 08:37:36;;;;;;;3.28;2.80;;;;;;;9.73;53.72;100720.22;4104571;28;20207;-56
2022/03/19 08:41:58;;;;;;;3.08;2.85;;;;;;;9.75;53.28;100726.38;4107483;28;20680;-56
2022/03/19 08:44:01;;;;;;;4.25;3.35;;;;;;;9.57;53.01;100717.72;4085738;28;20240;-55
2022/03/19 08:46:03;;;;;;;4.18;3.58;;;;;;;9.17;53.88;100720.91;4088357;28;20207;-56
2022/03/19 08:48:05;;;;;;;4.15;3.85;;;;;;;9.09;54.49;100727.31;4105115;28;20220;-57
2022/03/19 08:50:07;;;;;;;3.72;3.28;;;;;;;9.46;54.48;100731.84;4105305;28;20626;-56
2022/03/19 08:52:09;;;;;;;3.13;2.80;;;;;;;9.52;52.93;100717.44;4088971;28;20236;-56
2022/03/19 08:54:15;;;;;;;3.65;3.35;;;;;;;9.67;53.67;100715.56;4107582;28;20209;-56
2022/03/19 08:56:17;;;;;;;4.35;3.72;;;;;;;9.63;53.33;100711.50;4106286;28;20218;-55
2022/03/19 08:58:19;;;;;;;3.25;2.92;;;;;;;9.57;52.95;100706.78;4105476;28;20243;-56
2022/03/19 09:00:21;;;;;;;3.28;2.97;;;;;;;9.61;53.75;100719.03;4089038;28;20318;-57
2022/03/19 09:02:23;;;;;;;8.63;3.10;;;;;;;9.97;53.82;100709.84;4088778;28;20207;-57
2022/03/19 09:04:24;;;;;;;3.83;2.83;;;;;;;9.93;52.82;100710.38;4104979;28;20215;-57
2022/03/19 09:06:26;;;;;;;3.13;2.83;;;;;;;10.65;52.54;100712.88;4079891;29;20267;-57
2022/03/19 09:08:28;;;;;;;3.72;2.65;;;;;;;10.47;51.49;100697.97;4088712;28;20204;-56
2022/03/19 09:10:30;;;;;;;3.92;3.20;;;;;;;10.06;51.39;100702.38;4102650;28;20234;-56
2022/03/19 09:12:31;;;;;;;5.07;4.25;;;;;;;10.05;52.30;100696.06;4102181;28;20258;-56
2022/03/19 09:14:33;;;;;;;3.03;2.50;;;;;;;10.23;52.21;100692.88;4105551;28;20218;-57
2022/03/19 09:16:35;;;;;;;4.50;3.03;;;;;;;10.22;52.05;100702.13;4103925;28;20564;-57
2022/03/19 09:18:37;;;;;;;4.15;3.20;;;;;;;9.85;51.86;100688.63;4090348;28;20211;-57
2022/03/19 09:20:39;;;;;;;4.18;3.88;;;;;;;10.21;51.97;100689.50;4085564;28;20623;-56
2022/03/19 09:22:40;;;;;;;9.48;5.25;;;;;;;10.38;50.66;100691.78;4106247;28;20215;-57
2022/03/19 09:24:42;;;;;;;5.32;4.82;;;;;;;10.52;50.77;100698.22;4098985;28;20306;-56
2022/03/19 09:26:44;;;;;;;13.32;3.63;;;;;;;11.37;50.14;100687.72;4088979;28;20219;-57
2022/03/19 09:28:46;;;;;;;3.55;2.83;;;;;;;11.18;49.42;100668.41;4088684;28;20300;-56
2022/03/19 09:30:47;;;;;;;3.25;2.95;;;;;;;11.15;49.76;100679.75;4102656;28;20275;-56
2022/03/19 09:32:49;;;;;;;3.72;3.42;;;;;;;11.03;49.35;100676.75;4095637;28;20302;-56
2022/03/19 09:35:11;;;;;;;4.88;4.25;;;;;;;11.08;48.99;100676.13;4103640;28;20222;-55
2022/03/19 09:37:14;;;;;;;3.13;2.83;;;;;;;11.53;49.30;100672.81;4108189;28;20285;-57
2022/03/19 09:39:16;;;;;;;6.50;3.25;;;;;;;10.69;49.13;100673.09;4080029;28;20298;-54
2022/03/19 09:41:18;;;;;;;4.43;3.50;;;;;;;10.82;49.05;100676.81;4100489;28;20273;-54
2022/03/19 09:43:23;;;;;;;15.65;3.90;;;;;;;10.88;49.13;100656.84;4104035;28;20633;-57
2022/03/19 09:45:29;;;;;;;3.80;2.97;;;;;;;10.89;48.90;100658.53;4105177;28;20226;-57